createdAt,value
2024-01-30T00:00:21.657Z,101968.56
2024-01-30T00:10:24.810Z,101978.44
2024-01-30T00:20:29.246Z,101976.38
2024-01-30T00:30:32.170Z,101967.50
2024-01-30T00:40:36.757Z,101948.66
2024-01-30T00:50:40.081Z,101957.88
2024-01-30T01:00:44.398Z,101950.06
2024-01-30T01:10:47.581Z,101946.66
2024-01-30T01:20:51.852Z,101944.78
2024-01-30T01:30:55.063Z,101954.94
2024-01-30T01:40:59.309Z,101942.16
2024-01-30T01:51:02.825Z,101929.47
2024-01-30T02:01:07.797Z,101928.78
2024-01-30T02:11:11.670Z,101931.84
2024-01-30T02:21:16.540Z,101921.31
2024-01-30T02:31:19.534Z,101927.25
2024-01-30T02:41:23.722Z,101923.06
2024-01-30T02:51:26.823Z,101926.38
2024-01-30T03:01:31.186Z,101912.69
2024-01-30T03:11:34.885Z,101911.78
2024-01-30T03:21:39.383Z,101913.50
2024-01-30T03:31:42.589Z,101904.88
2024-01-30T03:41:47.035Z,101903.25
2024-01-30T03:51:50.179Z,101909.16
2024-01-30T04:01:55.008Z,101903.06
2024-01-30T04:11:58.291Z,101891.03
2024-01-30T04:22:02.704Z,101880.00
2024-01-30T04:32:06.654Z,101883.50
2024-01-30T04:42:10.999Z,101874.88
2024-01-30T04:52:14.166Z,101868.69
2024-01-30T05:02:18.722Z,101872.16
2024-01-30T05:12:21.624Z,101890.97
2024-01-30T05:22:26.038Z,101891.44
2024-01-30T05:32:29.176Z,101880.16
2024-01-30T05:42:33.875Z,101891.81
2024-01-30T05:52:37.094Z,101869.56
2024-01-30T06:02:41.776Z,101869.09
2024-01-30T06:12:44.902Z,101864.47
2024-01-30T06:22:49.379Z,101869.69
2024-01-30T06:32:52.605Z,101880.72
2024-01-30T06:42:57.067Z,101874.72
2024-01-30T06:53:00.121Z,101869.53
2024-01-30T07:03:04.834Z,101865.41
2024-01-30T07:13:07.829Z,101868.03
2024-01-30T07:23:14.936Z,101854.44
2024-01-30T07:33:17.999Z,101866.56
2024-01-30T07:43:23.971Z,101861.47
2024-01-30T07:53:27.172Z,101883.66
2024-01-30T08:03:31.718Z,101894.78
2024-01-30T08:13:34.780Z,101907.84
2024-01-30T08:23:40.404Z,101897.69
2024-01-30T08:33:44.709Z,101878.94
2024-01-30T08:43:50.124Z,101873.75
2024-01-30T08:53:53.832Z,101879.81
2024-01-30T09:04:00.960Z,101901.50
2024-01-30T09:14:04.228Z,101899.97
2024-01-30T09:24:10.243Z,101918.06
2024-01-30T09:34:13.430Z,101924.19
2024-01-30T09:44:19.379Z,101929.38
2024-01-30T09:54:22.993Z,101936.16
2024-01-30T10:04:27.572Z,101932.56
2024-01-30T10:14:30.803Z,101944.47
2024-01-30T10:24:36.028Z,101957.34
2024-01-30T10:34:39.723Z,101949.66
2024-01-30T10:44:57.018Z,101943.63
2024-01-30T10:55:01.049Z,101945.31
2024-01-30T11:05:07.423Z,101945.28
2024-01-30T11:15:12.174Z,101926.38
2024-01-30T11:25:18.150Z,101916.94
2024-01-30T11:35:21.763Z,101922.09
2024-01-30T11:45:26.856Z,101916.09
2024-01-30T11:55:34.375Z,101917.75
2024-01-30T12:05:44.309Z,101903.06
2024-01-30T12:15:47.701Z,101896.13
2024-01-30T12:25:52.442Z,101896.09
2024-01-30T12:36:02.200Z,101894.34
2024-01-30T12:46:08.405Z,101916.75
2024-01-30T12:56:11.341Z,101935.59
2024-01-30T13:06:15.953Z,101911.53
2024-01-30T13:16:19.201Z,101927.97
2024-01-30T13:26:23.942Z,101928.06
2024-01-30T13:36:27.366Z,101934.91
2024-01-30T13:46:32.177Z,101941.88
2024-01-30T13:56:35.534Z,101952.91
2024-01-30T14:06:50.065Z,101963.25
2024-01-30T14:16:56.778Z,101977.78
2024-01-30T14:27:01.821Z,101977.00
2024-01-30T14:37:04.900Z,101974.41
2024-01-30T14:47:10.676Z,101978.69
2024-01-30T14:57:15.435Z,101986.47
2024-01-30T15:07:25.648Z,102000.19
2024-01-30T15:17:36.480Z,102014.84
2024-01-30T15:27:41.246Z,102029.53
2024-01-30T15:37:44.411Z,102032.16
2024-01-30T15:47:48.850Z,102042.38
2024-01-30T15:57:53.268Z,102048.41
2024-01-30T16:07:57.767Z,102070.78
2024-01-30T16:18:00.801Z,102076.78
2024-01-30T16:28:05.918Z,102081.94
2024-01-30T16:38:09.879Z,102091.38
2024-01-30T16:48:18.420Z,102119.78
2024-01-30T16:58:21.677Z,102139.72
2024-01-30T17:08:26.134Z,102158.59
2024-01-30T17:18:29.365Z,102178.28
2024-01-30T17:28:33.804Z,102188.56
2024-01-30T17:38:37.312Z,102208.28
2024-01-30T17:48:42.159Z,102230.47
2024-01-30T17:58:45.773Z,102233.00
2024-01-30T18:08:50.648Z,102253.63
2024-01-30T18:18:53.811Z,102270.72
2024-01-30T18:28:58.149Z,102266.47
2024-01-30T18:39:01.164Z,102269.81
2024-01-30T18:49:05.584Z,102295.50
2024-01-30T18:59:09.470Z,102309.28
2024-01-30T19:09:14.165Z,102317.81
2024-01-30T19:19:17.514Z,102329.91
2024-01-30T19:29:21.734Z,102343.47
2024-01-30T19:39:24.691Z,102346.91
2024-01-30T19:49:29.686Z,102352.03
2024-01-30T19:59:32.876Z,102349.38
2024-01-30T20:09:37.134Z,102368.03
2024-01-30T20:19:40.555Z,102379.19
2024-01-30T20:29:45.024Z,102384.41
2024-01-30T20:39:48.176Z,102385.09
2024-01-30T20:49:52.790Z,102398.78
2024-01-30T20:59:55.950Z,102409.00
2024-01-30T21:10:00.268Z,102409.19
2024-01-30T21:20:03.497Z,102404.72
2024-01-30T21:30:09.442Z,102415.78
2024-01-30T21:40:15.841Z,102414.00
2024-01-30T21:50:21.068Z,102428.44
2024-01-30T22:00:24.319Z,102441.38
2024-01-30T22:10:29.072Z,102434.34
2024-01-30T22:20:32.150Z,102428.31
2024-01-30T22:30:37.284Z,102443.66
2024-01-30T22:40:40.618Z,102455.63
2024-01-30T22:50:46.073Z,102465.47
2024-01-30T23:00:49.260Z,102480.09
2024-01-30T23:10:53.699Z,102500.50
2024-01-30T23:21:11.711Z,102497.66
2024-01-30T23:31:16.147Z,102505.41
2024-01-30T23:41:19.227Z,102511.53
2024-01-30T23:51:25.116Z,102507.16
